sensor_id;sensor_type;location;lat;lon;timestamp;pressure;altitude;pressure_sealevel;temperature;humidity
51687;BME280;37774;52.192;4.584;2023-02-20T00:01:53;102985.94;;;4.15;100.00
51687;BME280;37774;52.192;4.584;2023-02-20T00:04:22;103016.03;;;4.49;100.00
51687;BME280;37774;52.192;4.584;2023-02-20T00:06:49;102855.13;;;3.41;100.00
51687;BME280;37774;52.192;4.584;2023-02-20T00:09:16;102848.47;;;3.45;100.00
51687;BME280;37774;52.192;4.584;2023-02-20T00:11:43;103103.97;;;4.88;100.00
51687;BME280;37774;52.192;4.584;2023-02-20T00:14:11;103193.09;;;5.51;100.00
51687;BME280;37774;52.192;4.584;2023-02-20T00:16:38;103195.59;;;5.49;100.00
51687;BME280;37774;52.192;4.584;2023-02-20T00:19:05;102751.19;;;2.88;100.00
51687;BME280;37774;52.192;4.584;2023-02-20T00:21:33;103188.59;;;5.47;100.00
51687;BME280;37774;52.192;4.584;2023-02-20T00:23:59;103201.38;;;5.45;100.00
51687;BME280;37774;52.192;4.584;2023-02-20T00:26:26;103195.44;;;5.46;100.00
51687;BME280;37774;52.192;4.584;2023-02-20T00:28:53;103203.16;;;5.46;100.00
51687;BME280;37774;52.192;4.584;2023-02-20T00:31:20;103201.34;;;5.44;100.00
51687;BME280;37774;52.192;4.584;2023-02-20T00:33:46;103201.38;;;5.45;100.00
51687;BME280;37774;52.192;4.584;2023-02-20T00:36:15;103204.78;;;5.44;100.00
51687;BME280;37774;52.192;4.584;2023-02-20T00:38:43;102985.91;;;3.98;100.00
51687;BME280;37774;52.192;4.584;2023-02-20T00:41:11;103188.41;;;5.27;100.00
51687;BME280;37774;52.192;4.584;2023-02-20T00:43:39;103201.97;;;5.39;100.00
51687;BME280;37774;52.192;4.584;2023-02-20T00:46:06;102804.03;;;2.99;100.00
51687;BME280;37774;52.192;4.584;2023-02-20T00:48:36;103227.50;;;5.35;100.00
51687;BME280;37774;52.192;4.584;2023-02-20T00:51:03;103122.75;;;4.71;100.00
51687;BME280;37774;52.192;4.584;2023-02-20T00:53:30;103231.69;;;5.33;100.00
51687;BME280;37774;52.192;4.584;2023-02-20T00:55:58;103196.63;;;5.03;100.00
51687;BME280;37774;52.192;4.584;2023-02-20T00:58:25;103225.31;;;5.26;100.00
51687;BME280;37774;52.192;4.584;2023-02-20T01:00:51;103087.09;;;4.45;100.00
51687;BME280;37774;52.192;4.584;2023-02-20T01:03:18;102970.16;;;3.60;100.00
51687;BME280;37774;52.192;4.584;2023-02-20T01:05:45;102889.50;;;3.43;100.00
51687;BME280;37774;52.192;4.584;2023-02-20T01:08:12;102961.78;;;3.79;100.00
51687;BME280;37774;52.192;4.584;2023-02-20T01:10:39;102923.44;;;3.53;100.00
51687;BME280;37774;52.192;4.584;2023-02-20T01:13:07;102963.22;;;3.74;100.00
51687;BME280;37774;52.192;4.584;2023-02-20T01:15:34;103167.56;;;4.89;100.00
51687;BME280;37774;52.192;4.584;2023-02-20T01:18:01;102892.78;;;2.94;100.00
51687;BME280;37774;52.192;4.584;2023-02-20T01:20:30;103179.88;;;4.78;100.00
51687;BME280;37774;52.192;4.584;2023-02-20T01:22:57;103024.84;;;3.73;100.00
51687;BME280;37774;52.192;4.584;2023-02-20T01:25:24;103285.84;;;5.16;100.00
51687;BME280;37774;52.192;4.584;2023-02-20T01:27:51;103062.94;;;3.95;100.00
51687;BME280;37774;52.192;4.584;2023-02-20T01:30:19;102940.69;;;3.09;100.00
51687;BME280;37774;52.192;4.584;2023-02-20T01:32:46;103229.91;;;4.67;100.00
51687;BME280;37774;52.192;4.584;2023-02-20T01:35:13;103262.44;;;4.96;100.00
51687;BME280;37774;52.192;4.584;2023-02-20T01:37:40;102904.03;;;2.66;100.00
51687;BME280;37774;52.192;4.584;2023-02-20T01:40:13;103380.13;;;5.28;100.00
51687;BME280;37774;52.192;4.584;2023-02-20T01:42:41;103324.97;;;5.09;100.00
51687;BME280;37774;52.192;4.584;2023-02-20T01:45:15;103276.31;;;4.83;100.00
51687;BME280;37774;52.192;4.584;2023-02-20T01:47:44;103331.09;;;5.11;100.00
51687;BME280;37774;52.192;4.584;2023-02-20T01:50:13;103287.44;;;4.67;100.00
51687;BME280;37774;52.192;4.584;2023-02-20T01:52:42;103342.38;;;5.13;100.00
51687;BME280;37774;52.192;4.584;2023-02-20T01:55:12;103319.31;;;5.00;100.00
51687;BME280;37774;52.192;4.584;2023-02-20T01:57:43;103239.44;;;4.53;100.00
51687;BME280;37774;52.192;4.584;2023-02-20T02:00:16;103346.69;;;4.97;100.00
51687;BME280;37774;52.192;4.584;2023-02-20T02:02:49;103380.00;;;5.26;100.00
51687;BME280;37774;52.192;4.584;2023-02-20T02:05:18;103262.00;;;5.37;100.00
51687;BME280;37774;52.192;4.584;2023-02-20T02:07:45;103318.03;;;5.39;100.00
51687;BME280;37774;52.192;4.584;2023-02-20T02:10:14;103305.03;;;5.38;100.00
51687;BME280;37774;52.192;4.584;2023-02-20T02:12:44;103316.47;;;5.60;100.00
51687;BME280;37774;52.192;4.584;2023-02-20T02:15:13;103064.19;;;4.18;100.00
51687;BME280;37774;52.192;4.584;2023-02-20T02:18:14;103297.97;;;5.83;100.00
51687;BME280;37774;52.192;4.584;2023-02-20T02:21:08;103355.56;;;5.03;100.00
51687;BME280;37774;52.192;4.584;2023-02-20T02:33:04;103536.75;;;6.08;100.00
51687;BME280;37774;52.192;4.584;2023-02-20T02:35:58;103252.63;;;4.28;100.00
51687;BME280;37774;52.192;4.584;2023-02-20T02:38:32;103222.09;;;4.19;100.00
51687;BME280;37774;52.192;4.584;2023-02-20T02:41:07;103557.97;;;6.19;100.00
51687;BME280;37774;52.192;4.584;2023-02-20T02:43:45;103370.28;;;5.05;100.00
51687;BME280;37774;52.192;4.584;2023-02-20T02:46:18;103544.19;;;6.19;100.00
51687;BME280;37774;52.192;4.584;2023-02-20T02:48:51;103466.41;;;5.81;100.00
51687;BME280;37774;52.192;4.584;2023-02-20T02:51:26;103251.59;;;4.56;100.00
51687;BME280;37774;52.192;4.584;2023-02-20T02:54:06;103526.78;;;6.31;100.00
51687;BME280;37774;52.192;4.584;2023-02-20T02:56:35;103433.41;;;5.75;100.00
51687;BME280;37774;52.192;4.584;2023-02-20T02:59:06;103515.16;;;6.39;100.00
51687;BME280;37774;52.192;4.584;2023-02-20T03:01:38;103298.28;;;5.08;100.00
51687;BME280;37774;52.192;4.584;2023-02-20T03:04:09;103510.25;;;6.44;100.00
51687;BME280;37774;52.192;4.584;2023-02-20T03:06:40;103500.94;;;6.48;100.00
51687;BME280;37774;52.192;4.584;2023-02-20T03:09:10;103461.09;;;6.26;100.00
51687;BME280;37774;52.192;4.584;2023-02-20T03:11:39;103378.72;;;5.66;100.00
51687;BME280;37774;52.192;4.584;2023-02-20T03:14:10;103175.56;;;4.62;100.00
51687;BME280;37774;52.192;4.584;2023-02-20T03:16:59;103454.69;;;6.36;100.00
51687;BME280;37774;52.192;4.584;2023-02-20T03:19:31;103374.09;;;5.92;100.00
51687;BME280;37774;52.192;4.584;2023-02-20T03:22:01;103467.13;;;6.60;100.00
51687;BME280;37774;52.192;4.584;2023-02-20T03:24:32;103297.25;;;5.53;100.00
51687;BME280;37774;52.192;4.584;2023-02-20T03:27:20;103272.56;;;5.58;100.00
51687;BME280;37774;52.192;4.584;2023-02-20T03:29:49;103119.66;;;4.76;100.00
51687;BME280;37774;52.192;4.584;2023-02-20T03:32:18;103234.03;;;5.61;100.00
51687;BME280;37774;52.192;4.584;2023-02-20T03:35:05;103411.44;;;6.66;100.00
51687;BME280;37774;52.192;4.584;2023-02-20T03:37:51;103348.06;;;6.38;100.00
51687;BME280;37774;52.192;4.584;2023-02-20T03:40:36;103239.78;;;5.90;100.00
51687;BME280;37774;52.192;4.584;2023-02-20T03:43:22;103272.25;;;6.20;100.00
51687;BME280;37774;52.192;4.584;2023-02-20T03:45:51;103342.63;;;6.68;100.00
51687;BME280;37774;52.192;4.584;2023-02-20T03:48:23;103365.47;;;6.77;100.00
51687;BME280;37774;52.192;4.584;2023-02-20T03:50:53;103337.03;;;6.77;100.00
51687;BME280;37774;52.192;4.584;2023-02-20T03:53:40;103221.88;;;5.93;100.00
51687;BME280;37774;52.192;4.584;2023-02-20T03:56:10;103079.59;;;5.16;100.00
51687;BME280;37774;52.192;4.584;2023-02-20T03:58:40;103311.56;;;6.85;100.00
51687;BME280;37774;52.192;4.584;2023-02-20T04:01:08;102908.22;;;4.55;100.00
51687;BME280;37774;52.192;4.584;2023-02-20T04:03:41;103094.44;;;5.73;100.00
51687;BME280;37774;52.192;4.584;2023-02-20T04:06:11;102889.38;;;4.56;100.00
51687;BME280;37774;52.192;4.584;2023-02-20T04:08:43;103177.06;;;6.27;100.00
51687;BME280;37774;52.192;4.584;2023-02-20T04:11:15;103274.69;;;6.89;100.00
51687;BME280;37774;52.192;4.584;2023-02-20T04:13:43;103271.97;;;6.86;100.00
51687;BME280;37774;52.192;4.584;2023-02-20T04:16:11;103298.84;;;6.90;100.00
51687;BME280;37774;52.192;4.584;2023-02-20T04:18:39;102870.28;;;4.34;100.00
51687;BME280;37774;52.192;4.584;2023-02-20T04:21:10;103265.25;;;6.90;100.00
51687;BME280;37774;52.192;4.584;2023-02-20T04:23:46;103268.66;;;6.89;100.00
51687;BME280;37774;52.192;4.584;2023-02-20T04:26:18;103224.16;;;6.58;100.00
51687;BME280;37774;52.192;4.584;2023-02-20T04:28:46;103118.94;;;5.99;100.00
51687;BME280;37774;52.192;4.584;2023-02-20T04:31:15;103211.31;;;6.60;100.00
51687;BME280;37774;52.192;4.584;2023-02-20T04:33:42;103241.41;;;6.77;100.00
51687;BME280;37774;52.192;4.584;2023-02-20T04:36:10;102898.53;;;4.67;100.00
51687;BME280;37774;52.192;4.584;2023-02-20T04:38:36;102973.13;;;5.17;100.00
51687;BME280;37774;52.192;4.584;2023-02-20T04:41:05;103257.94;;;6.81;100.00
51687;BME280;37774;52.192;4.584;2023-02-20T04:43:31;103228.13;;;6.69;100.00
51687;BME280;37774;52.192;4.584;2023-02-20T04:45:58;103253.69;;;6.81;100.00
51687;BME280;37774;52.192;4.584;2023-02-20T04:48:25;103232.28;;;6.66;100.00
51687;BME280;37774;52.192;4.584;2023-02-20T04:50:52;103280.91;;;6.75;100.00
51687;BME280;37774;52.192;4.584;2023-02-20T04:53:19;102855.28;;;4.44;100.00
51687;BME280;37774;52.192;4.584;2023-02-20T04:55:46;102817.47;;;4.24;100.00
51687;BME280;37774;52.192;4.584;2023-02-20T04:58:14;102980.41;;;5.08;100.00
51687;BME280;37774;52.192;4.584;2023-02-20T05:00:41;103216.97;;;6.70;100.00
51687;BME280;37774;52.192;4.584;2023-02-20T05:03:08;103122.75;;;6.06;100.00
51687;BME280;37774;52.192;4.584;2023-02-20T05:05:35;103241.56;;;6.80;100.00
51687;BME280;37774;52.192;4.584;2023-02-20T05:08:04;103249.22;;;6.79;100.00
51687;BME280;37774;52.192;4.584;2023-02-20T05:10:32;102911.09;;;4.78;100.00
51687;BME280;37774;52.192;4.584;2023-02-20T05:13:00;102731.41;;;3.85;100.00
51687;BME280;37774;52.192;4.584;2023-02-20T05:15:29;103222.38;;;6.75;100.00
51687;BME280;37774;52.192;4.584;2023-02-20T05:17:56;102918.38;;;4.87;100.00
51687;BME280;37774;52.192;4.584;2023-02-20T05:20:23;102917.50;;;4.70;100.00
51687;BME280;37774;52.192;4.584;2023-02-20T05:23:10;103218.59;;;6.68;100.00
51687;BME280;37774;52.192;4.584;2023-02-20T05:25:36;102936.25;;;4.83;100.00
51687;BME280;37774;52.192;4.584;2023-02-20T05:28:03;103086.50;;;5.87;100.00
51687;BME280;37774;52.192;4.584;2023-02-20T05:30:31;103024.78;;;5.37;100.00
51687;BME280;37774;52.192;4.584;2023-02-20T05:32:58;103225.50;;;6.68;100.00
51687;BME280;37774;52.192;4.584;2023-02-20T05:35:25;103224.44;;;6.64;100.00
51687;BME280;37774;52.192;4.584;2023-02-20T05:37:51;103145.75;;;6.20;100.00
51687;BME280;37774;52.192;4.584;2023-02-20T05:40:18;102856.75;;;4.38;100.00
51687;BME280;37774;52.192;4.584;2023-02-20T05:42:46;102946.44;;;4.99;100.00
51687;BME280;37774;52.192;4.584;2023-02-20T05:45:13;103136.59;;;6.08;100.00
51687;BME280;37774;52.192;4.584;2023-02-20T05:47:41;103214.19;;;6.66;100.00
51687;BME280;37774;52.192;4.584;2023-02-20T05:50:08;103139.81;;;6.22;100.00
51687;BME280;37774;52.192;4.584;2023-02-20T05:52:35;103219.00;;;6.58;100.00
51687;BME280;37774;52.192;4.584;2023-02-20T05:55:02;103195.72;;;6.58;100.00
51687;BME280;37774;52.192;4.584;2023-02-20T05:57:28;102835.75;;;4.47;100.00
51687;BME280;37774;52.192;4.584;2023-02-20T05:59:55;102915.69;;;4.67;100.00
51687;BME280;37774;52.192;4.584;2023-02-20T06:02:22;103102.63;;;5.82;100.00
51687;BME280;37774;52.192;4.584;2023-02-20T06:04:50;103164.84;;;6.41;100.00
51687;BME280;37774;52.192;4.584;2023-02-20T06:07:17;102969.84;;;5.03;100.00
51687;BME280;37774;52.192;4.584;2023-02-20T06:09:44;102917.28;;;5.00;100.00
51687;BME280;37774;52.192;4.584;2023-02-20T06:12:11;103181.03;;;6.57;100.00
51687;BME280;37774;52.192;4.584;2023-02-20T06:14:39;103144.78;;;6.18;100.00
51687;BME280;37774;52.192;4.584;2023-02-20T06:17:05;103180.72;;;6.49;100.00
51687;BME280;37774;52.192;4.584;2023-02-20T06:19:32;103190.22;;;6.50;100.00
51687;BME280;37774;52.192;4.584;2023-02-20T06:22:01;103145.06;;;6.24;100.00
51687;BME280;37774;52.192;4.584;2023-02-20T06:24:29;102719.34;;;3.67;100.00
51687;BME280;37774;52.192;4.584;2023-02-20T06:26:56;102636.81;;;3.28;100.00
51687;BME280;37774;52.192;4.584;2023-02-20T06:29:23;103135.78;;;6.09;100.00
51687;BME280;37774;52.192;4.584;2023-02-20T06:31:50;102972.66;;;5.26;100.00
51687;BME280;37774;52.192;4.584;2023-02-20T06:34:17;103195.25;;;6.47;100.00
51687;BME280;37774;52.192;4.584;2023-02-20T06:36:44;102689.81;;;3.59;100.00
51687;BME280;37774;52.192;4.584;2023-02-20T06:39:13;103157.31;;;6.28;100.00
51687;BME280;37774;52.192;4.584;2023-02-20T06:41:40;103155.13;;;6.18;100.00
51687;BME280;37774;52.192;4.584;2023-02-20T06:44:10;102825.34;;;4.11;100.00
51687;BME280;37774;52.192;4.584;2023-02-20T06:46:36;102693.50;;;3.47;100.00
51687;BME280;37774;52.192;4.584;2023-02-20T06:49:04;103010.56;;;5.45;100.00
51687;BME280;37774;52.192;4.584;2023-02-20T06:51:32;102972.38;;;5.20;100.00
51687;BME280;37774;52.192;4.584;2023-02-20T06:54:00;103194.34;;;6.47;100.00
51687;BME280;37774;52.192;4.584;2023-02-20T06:56:30;102960.88;;;5.13;100.00
51687;BME280;37774;52.192;4.584;2023-02-20T06:58:58;102768.88;;;3.79;100.00
51687;BME280;37774;52.192;4.584;2023-02-20T07:01:27;103203.06;;;6.49;100.00
51687;BME280;37774;52.192;4.584;2023-02-20T07:03:56;103045.03;;;5.47;100.00
51687;BME280;37774;52.192;4.584;2023-02-20T07:06:24;102699.94;;;3.56;100.00
51687;BME280;37774;52.192;4.584;2023-02-20T07:08:51;103131.78;;;5.98;100.00
51687;BME280;37774;52.192;4.584;2023-02-20T07:11:20;103216.06;;;6.50;100.00
51687;BME280;37774;52.192;4.584;2023-02-20T07:13:48;103235.97;;;6.53;100.00
51687;BME280;37774;52.192;4.584;2023-02-20T07:16:15;102920.44;;;4.59;100.00
51687;BME280;37774;52.192;4.584;2023-02-20T07:18:42;103036.31;;;5.27;100.00
51687;BME280;37774;52.192;4.584;2023-02-20T07:21:10;102942.34;;;4.86;100.00
51687;BME280;37774;52.192;4.584;2023-02-20T07:23:37;103077.69;;;5.65;100.00
51687;BME280;37774;52.192;4.584;2023-02-20T07:26:03;103212.28;;;6.43;100.00
51687;BME280;37774;52.192;4.584;2023-02-20T07:28:33;103030.88;;;5.39;100.00
51687;BME280;37774;52.192;4.584;2023-02-20T07:31:02;103202.19;;;6.48;100.00
51687;BME280;37774;52.192;4.584;2023-02-20T07:33:28;103236.16;;;6.76;100.00
51687;BME280;37774;52.192;4.584;2023-02-20T07:35:55;103240.66;;;6.80;100.00
51687;BME280;37774;52.192;4.584;2023-02-20T07:38:22;102870.53;;;4.57;100.00
51687;BME280;37774;52.192;4.584;2023-02-20T07:40:49;103126.03;;;6.04;100.00
51687;BME280;37774;52.192;4.584;2023-02-20T07:43:16;103137.63;;;6.30;100.00
51687;BME280;37774;52.192;4.584;2023-02-20T07:45:42;102927.16;;;4.90;100.00
51687;BME280;37774;52.192;4.584;2023-02-20T07:48:11;103060.59;;;5.67;100.00
51687;BME280;37774;52.192;4.584;2023-02-20T07:50:37;103056.41;;;5.69;100.00
51687;BME280;37774;52.192;4.584;2023-02-20T07:53:04;102765.84;;;4.05;100.00
51687;BME280;37774;52.192;4.584;2023-02-20T07:55:31;103128.34;;;6.16;100.00
51687;BME280;37774;52.192;4.584;2023-02-20T07:57:58;102938.13;;;5.22;100.00
51687;BME280;37774;52.192;4.584;2023-02-20T08:00:26;103075.81;;;5.97;100.00
51687;BME280;37774;52.192;4.584;2023-02-20T08:02:53;103225.81;;;6.94;100.00
51687;BME280;37774;52.192;4.584;2023-02-20T08:05:21;103117.34;;;6.20;100.00
51687;BME280;37774;52.192;4.584;2023-02-20T08:07:49;103225.28;;;6.83;100.00
51687;BME280;37774;52.192;4.584;2023-02-20T08:10:19;103239.91;;;7.00;100.00
51687;BME280;37774;52.192;4.584;2023-02-20T08:12:46;103236.50;;;7.01;100.00
51687;BME280;37774;52.192;4.584;2023-02-20T08:15:13;103065.84;;;6.05;100.00
51687;BME280;37774;52.192;4.584;2023-02-20T08:17:40;102863.91;;;4.79;100.00
51687;BME280;37774;52.192;4.584;2023-02-20T08:20:08;103100.00;;;6.17;100.00
51687;BME280;37774;52.192;4.584;2023-02-20T08:22:36;103034.75;;;5.83;100.00
51687;BME280;37774;52.192;4.584;2023-02-20T08:25:04;103179.88;;;6.88;100.00
51687;BME280;37774;52.192;4.584;2023-02-20T08:27:31;103219.78;;;7.13;100.00
51687;BME280;37774;52.192;4.584;2023-02-20T08:30:03;103186.84;;;7.09;100.00
51687;BME280;37774;52.192;4.584;2023-02-20T08:32:30;103023.59;;;6.03;100.00
51687;BME280;37774;52.192;4.584;2023-02-20T08:34:57;103116.88;;;6.86;100.00
51687;BME280;37774;52.192;4.584;2023-02-20T08:37:23;103076.63;;;6.71;100.00
51687;BME280;37774;52.192;4.584;2023-02-20T08:39:53;103075.41;;;6.63;100.00
51687;BME280;37774;52.192;4.584;2023-02-20T08:42:20;102679.13;;;4.57;100.00
51687;BME280;37774;52.192;4.584;2023-02-20T08:44:47;102875.81;;;5.69;100.00
51687;BME280;37774;52.192;4.584;2023-02-20T08:47:14;103094.19;;;6.98;100.00
51687;BME280;37774;52.192;4.584;2023-02-20T08:49:40;103142.31;;;7.36;100.00
51687;BME280;37774;52.192;4.584;2023-02-20T08:52:07;103111.31;;;7.37;100.00
51687;BME280;37774;52.192;4.584;2023-02-20T08:54:34;103085.25;;;7.11;100.00
51687;BME280;37774;52.192;4.584;2023-02-20T08:57:02;103045.88;;;6.97;100.00
51687;BME280;37774;52.192;4.584;2023-02-20T08:59:30;103044.50;;;7.06;100.00
51687;BME280;37774;52.192;4.584;2023-02-20T09:01:57;103092.69;;;7.44;100.00
51687;BME280;37774;52.192;4.584;2023-02-20T09:04:24;103048.53;;;7.41;100.00
51687;BME280;37774;52.192;4.584;2023-02-20T09:06:51;102778.94;;;5.76;100.00
51687;BME280;37774;52.192;4.584;2023-02-20T09:09:18;102835.16;;;6.22;100.00
51687;BME280;37774;52.192;4.584;2023-02-20T09:11:44;103059.47;;;7.55;100.00
51687;BME280;37774;52.192;4.584;2023-02-20T09:14:13;103019.09;;;7.38;100.00
51687;BME280;37774;52.192;4.584;2023-02-20T09:16:40;102775.53;;;5.96;100.00
51687;BME280;37774;52.192;4.584;2023-02-20T09:19:07;102968.34;;;6.97;100.00
51687;BME280;37774;52.192;4.584;2023-02-20T09:21:34;102636.41;;;5.19;100.00
51687;BME280;37774;52.192;4.584;2023-02-20T09:24:01;102916.31;;;6.90;100.00
51687;BME280;37774;52.192;4.584;2023-02-20T09:26:27;103021.25;;;7.71;100.00
51687;BME280;37774;52.192;4.584;2023-02-20T09:28:54;103018.44;;;7.65;100.00
51687;BME280;37774;52.192;4.584;2023-02-20T09:31:23;102863.22;;;6.77;100.00
51687;BME280;37774;52.192;4.584;2023-02-20T09:33:49;102583.16;;;5.00;100.00
51687;BME280;37774;52.192;4.584;2023-02-20T09:36:16;102935.84;;;7.25;100.00
51687;BME280;37774;52.192;4.584;2023-02-20T09:38:43;102818.88;;;6.45;100.00
51687;BME280;37774;52.192;4.584;2023-02-20T09:41:22;102679.03;;;5.72;100.00
51687;BME280;37774;52.192;4.584;2023-02-20T09:43:58;102791.78;;;6.56;100.00
51687;BME280;37774;52.192;4.584;2023-02-20T09:46:32;102976.97;;;7.63;100.00
51687;BME280;37774;52.192;4.584;2023-02-20T09:49:03;102635.13;;;5.50;100.00
51687;BME280;37774;52.192;4.584;2023-02-20T09:51:34;102893.97;;;7.13;100.00
51687;BME280;37774;52.192;4.584;2023-02-20T09:54:04;102981.13;;;7.59;100.00
51687;BME280;37774;52.192;4.584;2023-02-20T09:56:34;102720.06;;;6.06;100.00
51687;BME280;37774;52.192;4.584;2023-02-20T09:59:05;102946.03;;;7.43;100.00
51687;BME280;37774;52.192;4.584;2023-02-20T10:01:38;102845.06;;;6.96;100.00
51687;BME280;37774;52.192;4.584;2023-02-20T10:04:12;102757.56;;;6.40;100.00
51687;BME280;37774;52.192;4.584;2023-02-20T10:06:40;102985.69;;;7.65;100.00
51687;BME280;37774;52.192;4.584;2023-02-20T10:09:10;102754.94;;;6.39;100.00
51687;BME280;37774;52.192;4.584;2023-02-20T10:11:49;102953.03;;;7.69;100.00
51687;BME280;37774;52.192;4.584;2023-02-20T10:14:37;102560.22;;;5.47;100.00
51687;BME280;37774;52.192;4.584;2023-02-20T10:17:14;102572.69;;;5.58;100.00
51687;BME280;37774;52.192;4.584;2023-02-20T10:19:49;102648.31;;;5.99;100.00
51687;BME280;37774;52.192;4.584;2023-02-20T10:22:19;102949.03;;;7.77;100.00
51687;BME280;37774;52.192;4.584;2023-02-20T10:24:59;102778.97;;;6.80;100.00
51687;BME280;37774;52.192;4.584;2023-02-20T10:27:34;102905.13;;;7.80;100.00
51687;BME280;37774;52.192;4.584;2023-02-20T10:30:06;102620.56;;;6.14;100.00
51687;BME280;37774;52.192;4.584;2023-02-20T10:32:41;102708.84;;;6.71;100.00
51687;BME280;37774;52.192;4.584;2023-02-20T10:35:12;102897.66;;;7.88;100.00
51687;BME280;37774;52.192;4.584;2023-02-20T10:37:43;102911.03;;;7.99;100.00
51687;BME280;37774;52.192;4.584;2023-02-20T10:40:17;102566.88;;;6.06;100.00
51687;BME280;37774;52.192;4.584;2023-02-20T10:42:49;102666.59;;;6.70;100.00
51687;BME280;37774;52.192;4.584;2023-02-20T10:45:24;102566.75;;;6.25;100.00
51687;BME280;37774;52.192;4.584;2023-02-20T10:47:57;102860.75;;;7.94;100.00
51687;BME280;37774;52.192;4.584;2023-02-20T10:50:30;102399.13;;;5.37;100.00
51687;BME280;37774;52.192;4.584;2023-02-20T10:53:03;102824.28;;;7.87;100.00
51687;BME280;37774;52.192;4.584;2023-02-20T10:55:38;102586.38;;;6.43;100.00
51687;BME280;37774;52.192;4.584;2023-02-20T10:58:14;102596.13;;;6.50;100.00
51687;BME280;37774;52.192;4.584;2023-02-20T11:00:46;102412.38;;;5.47;100.00
51687;BME280;37774;52.192;4.584;2023-02-20T11:03:19;102853.03;;;8.19;100.00
51687;BME280;37774;52.192;4.584;2023-02-20T11:05:52;102712.25;;;7.41;100.00
51687;BME280;37774;52.192;4.584;2023-02-20T11:08:20;102816.53;;;7.87;100.00
51687;BME280;37774;52.192;4.584;2023-02-20T11:10:47;102630.53;;;6.73;100.00
51687;BME280;37774;52.192;4.584;2023-02-20T11:13:17;102821.97;;;8.19;100.00
51687;BME280;37774;52.192;4.584;2023-02-20T11:15:47;102744.75;;;7.83;100.00
51687;BME280;37774;52.192;4.584;2023-02-20T11:18:22;102781.38;;;8.20;100.00
51687;BME280;37774;52.192;4.584;2023-02-20T11:20:52;102813.34;;;8.46;100.00
51687;BME280;37774;52.192;4.584;2023-02-20T11:23:39;102798.66;;;8.47;100.00
51687;BME280;37774;52.192;4.584;2023-02-20T11:26:27;102800.53;;;8.50;100.00
51687;BME280;37774;52.192;4.584;2023-02-20T11:28:58;102695.69;;;7.86;100.00
51687;BME280;37774;52.192;4.584;2023-02-20T11:31:26;102789.31;;;8.49;100.00
51687;BME280;37774;52.192;4.584;2023-02-20T11:33:54;102798.22;;;8.59;100.00
51687;BME280;37774;52.192;4.584;2023-02-20T11:36:24;102692.88;;;7.80;100.00
51687;BME280;37774;52.192;4.584;2023-02-20T11:38:57;102780.19;;;8.62;100.00
51687;BME280;37774;52.192;4.584;2023-02-20T11:41:27;102779.31;;;8.61;100.00
51687;BME280;37774;52.192;4.584;2023-02-20T11:44:18;102705.25;;;8.42;100.00
51687;BME280;37774;52.192;4.584;2023-02-20T11:46:46;102745.84;;;8.69;100.00
51687;BME280;37774;52.192;4.584;2023-02-20T11:49:25;102695.00;;;8.45;100.00
51687;BME280;37774;52.192;4.584;2023-02-20T11:52:06;102714.53;;;8.61;100.00
51687;BME280;37774;52.192;4.584;2023-02-20T11:54:33;102722.06;;;8.83;100.00
51687;BME280;37774;52.192;4.584;2023-02-20T11:57:03;102478.75;;;7.45;100.00
51687;BME280;37774;52.192;4.584;2023-02-20T11:59:36;102428.16;;;7.26;100.00
51687;BME280;37774;52.192;4.584;2023-02-20T12:02:27;102630.91;;;8.40;100.00
51687;BME280;37774;52.192;4.584;2023-02-20T12:05:05;102738.06;;;8.98;100.00
51687;BME280;37774;52.192;4.584;2023-02-20T12:07:35;102688.16;;;8.47;100.00
51687;BME280;37774;52.192;4.584;2023-02-20T12:10:10;102708.34;;;8.87;100.00
51687;BME280;37774;52.192;4.584;2023-02-20T12:12:41;102666.59;;;8.48;100.00
51687;BME280;37774;52.192;4.584;2023-02-20T12:15:12;102420.72;;;7.10;100.00
51687;BME280;37774;52.192;4.584;2023-02-20T12:17:55;102487.63;;;7.54;100.00
51687;BME280;37774;52.192;4.584;2023-02-20T12:20:30;102544.56;;;8.10;100.00
51687;BME280;37774;52.192;4.584;2023-02-20T12:23:04;102717.22;;;8.95;100.00
51687;BME280;37774;52.192;4.584;2023-02-20T12:25:48;102278.97;;;6.40;100.00
51687;BME280;37774;52.192;4.584;2023-02-20T12:28:27;102426.00;;;7.13;100.00
51687;BME280;37774;52.192;4.584;2023-02-20T12:31:12;102672.41;;;8.99;100.00
51687;BME280;37774;52.192;4.584;2023-02-20T12:33:54;102288.09;;;6.85;100.00
51687;BME280;37774;52.192;4.584;2023-02-20T12:36:29;102568.81;;;8.43;100.00
51687;BME280;37774;52.192;4.584;2023-02-20T12:38:58;102545.09;;;8.58;100.00
51687;BME280;37774;52.192;4.584;2023-02-20T12:41:52;102603.66;;;9.14;100.00
51687;BME280;37774;52.192;4.584;2023-02-20T12:44:44;102599.81;;;9.33;100.00
51687;BME280;37774;52.192;4.584;2023-02-20T12:47:21;102484.81;;;8.65;100.00
51687;BME280;37774;52.192;4.584;2023-02-20T12:50:13;102501.88;;;8.57;100.00
51687;BME280;37774;52.192;4.584;2023-02-20T12:53:02;102506.44;;;8.66;100.00
51687;BME280;37774;52.192;4.584;2023-02-20T12:55:35;102525.91;;;8.83;100.00
51687;BME280;37774;52.192;4.584;2023-02-20T12:58:17;102530.22;;;8.83;100.00
51687;BME280;37774;52.192;4.584;2023-02-20T13:00:51;102512.91;;;8.50;100.00
51687;BME280;37774;52.192;4.584;2023-02-20T13:03:22;102575.72;;;9.03;100.00
51687;BME280;37774;52.192;4.584;2023-02-20T13:05:50;102097.53;;;6.18;100.00
51687;BME280;37774;52.192;4.584;2023-02-20T13:08:22;102382.97;;;7.73;100.00
51687;BME280;37774;52.192;4.584;2023-02-20T13:10:54;102391.16;;;7.88;100.00
51687;BME280;37774;52.192;4.584;2023-02-20T13:13:22;102288.78;;;7.07;100.00
51687;BME280;37774;52.192;4.584;2023-02-20T13:15:57;102277.72;;;7.11;100.00
51687;BME280;37774;52.192;4.584;2023-02-20T13:18:33;102173.94;;;6.68;100.00